createdAt,value
2022-12-07T00:01:07.250Z,24.17
2022-12-07T00:03:35.746Z,24.43
2022-12-07T00:06:04.432Z,24.20
2022-12-07T00:08:32.733Z,23.37
2022-12-07T00:11:03.940Z,23.80
2022-12-07T00:13:33.493Z,24.80
2022-12-07T00:16:02.914Z,23.77
2022-12-07T00:18:31.183Z,22.93
2022-12-07T00:21:02.270Z,24.10
2022-12-07T00:23:30.451Z,24.30
2022-12-07T00:25:58.793Z,25.97
2022-12-07T00:28:26.961Z,24.97
2022-12-07T00:31:02.006Z,23.80
2022-12-07T00:33:30.183Z,23.00
2022-12-07T00:35:58.914Z,23.00
2022-12-07T00:38:27.278Z,23.10
2022-12-07T00:40:58.855Z,23.37
2022-12-07T00:43:27.198Z,22.37
2022-12-07T00:45:57.064Z,23.53
2022-12-07T00:48:25.417Z,22.87
2022-12-07T00:50:53.578Z,24.20
2022-12-07T00:53:21.966Z,24.07
2022-12-07T00:55:50.270Z,22.07
2022-12-07T00:58:18.438Z,23.73
2022-12-07T01:00:46.575Z,23.00
2022-12-07T01:03:17.204Z,22.33
2022-12-07T01:05:51.771Z,22.60
2022-12-07T01:08:20.138Z,22.23
2022-12-07T01:10:48.810Z,21.57
2022-12-07T01:13:16.997Z,21.03
2022-12-07T01:15:45.892Z,20.23
2022-12-07T01:18:15.444Z,21.20
2022-12-07T01:20:43.607Z,19.97
2022-12-07T01:23:11.800Z,20.33
2022-12-07T01:25:39.978Z,20.60
2022-12-07T01:28:08.146Z,20.77
2022-12-07T01:30:36.326Z,19.93
2022-12-07T01:33:04.556Z,20.30
2022-12-07T01:35:36.142Z,20.77
2022-12-07T01:38:04.325Z,21.83
2022-12-07T01:40:33.044Z,22.00
2022-12-07T01:43:01.199Z,22.87
2022-12-07T01:45:47.297Z,22.77
2022-12-07T01:48:17.652Z,23.20
2022-12-07T01:50:48.134Z,23.20
2022-12-07T01:53:16.387Z,25.57
2022-12-07T01:55:46.647Z,27.10
2022-12-07T01:58:15.240Z,28.13
2022-12-07T02:00:43.616Z,27.33
2022-12-07T02:03:13.907Z,27.90
2022-12-07T02:05:43.458Z,27.80
2022-12-07T02:08:13.683Z,27.80
2022-12-07T02:10:42.244Z,27.53
2022-12-07T02:13:12.798Z,27.27
2022-12-07T02:16:01.720Z,27.27
2022-12-07T02:18:35.395Z,28.07
2022-12-07T02:21:08.274Z,27.63
2022-12-07T02:23:50.768Z,27.50
2022-12-07T02:26:33.830Z,27.37
2022-12-07T02:29:12.655Z,26.23
2022-12-07T02:31:42.636Z,26.50
2022-12-07T02:34:12.385Z,27.23
2022-12-07T02:36:43.242Z,26.00
2022-12-07T02:39:14.596Z,25.93
2022-12-07T02:41:45.808Z,27.00
2022-12-07T02:44:16.692Z,26.00
2022-12-07T02:46:45.593Z,27.37
2022-12-07T02:49:14.167Z,26.37
2022-12-07T02:51:43.600Z,25.97
2022-12-07T02:54:14.168Z,27.20
2022-12-07T02:56:47.774Z,26.87
2022-12-07T02:59:21.567Z,27.23
2022-12-07T03:01:53.992Z,25.50
2022-12-07T03:04:31.883Z,24.90
2022-12-07T03:07:05.423Z,25.30
2022-12-07T03:09:37.144Z,24.87
2022-12-07T03:12:09.823Z,24.87
2022-12-07T03:14:43.264Z,24.63
2022-12-07T03:17:15.569Z,25.00
2022-12-07T03:19:44.279Z,24.97
2022-12-07T03:22:13.632Z,24.07
2022-12-07T03:24:44.766Z,24.93
2022-12-07T03:27:17.620Z,22.27
2022-12-07T03:29:48.776Z,22.17
2022-12-07T03:32:18.865Z,23.77
2022-12-07T03:34:48.631Z,22.27
2022-12-07T03:37:19.931Z,23.77
2022-12-07T03:39:52.819Z,21.97
2022-12-07T03:42:20.992Z,23.57
2022-12-07T03:44:50.883Z,23.03
2022-12-07T03:47:23.031Z,23.77
2022-12-07T03:49:53.095Z,22.07
2022-12-07T03:52:25.018Z,23.13
2022-12-07T03:54:56.590Z,23.77
2022-12-07T03:57:25.604Z,23.47
2022-12-07T03:59:56.759Z,23.30
2022-12-07T04:02:25.253Z,24.03
2022-12-07T04:04:53.681Z,23.90
2022-12-07T04:07:22.929Z,24.37
2022-12-07T04:09:51.103Z,23.73
2022-12-07T04:12:19.310Z,25.27
2022-12-07T04:14:47.457Z,24.50
2022-12-07T04:17:17.006Z,25.87
2022-12-07T04:19:45.137Z,24.23
2022-12-07T04:22:13.293Z,24.97
2022-12-07T04:24:41.460Z,25.07
2022-12-07T04:27:09.637Z,23.77
2022-12-07T04:29:37.796Z,24.40
2022-12-07T04:32:05.978Z,24.10
2022-12-07T04:34:35.498Z,22.27
2022-12-07T04:37:03.674Z,23.33
2022-12-07T04:39:33.084Z,24.53
2022-12-07T04:42:01.664Z,22.80
2022-12-07T04:44:30.421Z,22.77
2022-12-07T04:46:59.024Z,21.93
2022-12-07T04:49:27.591Z,22.00
2022-12-07T04:51:57.102Z,22.67
2022-12-07T04:54:25.329Z,22.57
2022-12-07T04:56:53.474Z,21.97
2022-12-07T04:59:21.665Z,22.47
2022-12-07T05:01:49.913Z,21.27
2022-12-07T05:04:18.746Z,21.70
2022-12-07T05:06:46.930Z,23.20
2022-12-07T05:09:16.443Z,21.80
2022-12-07T05:11:44.636Z,20.30
2022-12-07T05:14:14.407Z,21.17
2022-12-07T05:16:42.896Z,21.20
2022-12-07T05:19:11.430Z,20.20
2022-12-07T05:21:40.044Z,19.57
2022-12-07T05:24:09.345Z,20.07
2022-12-07T05:26:38.968Z,19.57
2022-12-07T05:29:07.432Z,17.73
2022-12-07T05:31:35.716Z,18.83
2022-12-07T05:34:04.257Z,18.47
2022-12-07T05:36:32.981Z,17.23
2022-12-07T05:39:01.196Z,18.47
2022-12-07T05:41:47.364Z,17.67
2022-12-07T05:44:16.931Z,17.90
2022-12-07T05:46:45.146Z,17.83
2022-12-07T05:49:13.403Z,16.70
2022-12-07T05:51:41.552Z,17.50
2022-12-07T05:54:09.722Z,16.60
2022-12-07T05:56:38.140Z,16.77
2022-12-07T05:59:24.439Z,16.00
2022-12-07T06:01:54.644Z,17.17
2022-12-07T06:04:23.302Z,15.60
2022-12-07T06:06:51.670Z,16.53
2022-12-07T06:09:20.239Z,15.17
2022-12-07T06:12:06.174Z,15.30
2022-12-07T06:14:34.459Z,15.00
2022-12-07T06:17:04.186Z,14.53
2022-12-07T06:19:32.478Z,14.80
2022-12-07T06:22:00.981Z,15.40
2022-12-07T06:24:29.217Z,15.33
2022-12-07T06:26:57.405Z,14.93
2022-12-07T06:29:25.725Z,15.73
2022-12-07T06:31:53.951Z,16.10
2022-12-07T06:34:24.588Z,15.13
2022-12-07T06:36:54.536Z,15.97
2022-12-07T06:39:23.266Z,16.03
2022-12-07T06:41:53.723Z,15.50
2022-12-07T06:44:22.621Z,15.57
2022-12-07T06:46:51.148Z,16.77
2022-12-07T06:49:19.398Z,16.23
2022-12-07T06:51:48.901Z,16.70
2022-12-07T06:54:17.917Z,18.03
2022-12-07T06:56:46.087Z,16.47
2022-12-07T06:59:14.672Z,16.87
2022-12-07T07:01:42.977Z,17.33
2022-12-07T07:04:11.201Z,17.20
2022-12-07T07:06:39.367Z,18.77
2022-12-07T07:09:10.410Z,17.90
2022-12-07T07:11:38.638Z,17.80
2022-12-07T07:14:06.912Z,16.50
2022-12-07T07:16:35.107Z,18.17
2022-12-07T07:19:03.288Z,19.30
2022-12-07T07:21:31.477Z,18.90
2022-12-07T07:23:59.672Z,19.40
2022-12-07T07:26:29.159Z,19.27
2022-12-07T07:28:57.336Z,19.27
2022-12-07T07:31:25.706Z,19.80
2022-12-07T07:33:53.918Z,19.37
2022-12-07T07:36:22.088Z,21.13
2022-12-07T07:38:50.225Z,19.17
2022-12-07T07:41:18.393Z,20.77
2022-12-07T07:43:47.937Z,19.87
2022-12-07T07:46:16.146Z,19.53
2022-12-07T07:48:44.379Z,16.87
2022-12-07T07:51:12.546Z,16.20
2022-12-07T07:53:40.731Z,16.93
2022-12-07T07:56:08.968Z,13.97
2022-12-07T07:58:37.209Z,14.67
2022-12-07T08:01:09.948Z,14.33
2022-12-07T08:03:38.321Z,14.63
2022-12-07T08:06:06.806Z,14.17
2022-12-07T08:08:34.997Z,16.60
2022-12-07T08:11:03.205Z,16.90
2022-12-07T08:13:31.979Z,15.87
2022-12-07T08:16:00.498Z,16.27
2022-12-07T08:18:30.085Z,14.90
2022-12-07T08:21:01.759Z,14.10
2022-12-07T08:23:37.564Z,13.23
2022-12-07T08:26:08.681Z,13.03
2022-12-07T08:28:37.135Z,11.93
2022-12-07T08:31:06.084Z,10.60
2022-12-07T08:33:35.698Z,10.53
2022-12-07T08:36:04.168Z,9.87
2022-12-07T08:38:32.406Z,9.37
2022-12-07T08:41:01.282Z,10.13
2022-12-07T08:43:29.472Z,9.07
2022-12-07T08:46:05.588Z,9.00
2022-12-07T08:48:34.274Z,7.47
2022-12-07T08:51:04.782Z,8.10
2022-12-07T08:53:33.012Z,9.17
2022-12-07T08:56:01.203Z,9.00
2022-12-07T08:58:29.588Z,9.03
2022-12-07T09:00:57.744Z,9.40
2022-12-07T09:03:25.924Z,8.33
2022-12-07T09:05:55.024Z,8.40
2022-12-07T09:08:25.604Z,8.50
2022-12-07T09:10:53.809Z,8.97
2022-12-07T09:13:21.977Z,9.23
2022-12-07T09:15:50.218Z,10.23
2022-12-07T09:18:18.471Z,11.60
2022-12-07T09:20:46.645Z,11.87
2022-12-07T09:23:14.803Z,12.90
2022-12-07T09:25:44.350Z,13.07
2022-12-07T09:28:12.509Z,13.80
2022-12-07T09:31:14.582Z,13.13
2022-12-07T09:33:28.800Z,11.93
2022-12-07T09:35:57.005Z,13.43
2022-12-07T09:38:27.252Z,12.97
2022-12-07T09:40:58.379Z,12.97
2022-12-07T09:43:27.744Z,12.53
2022-12-07T09:45:57.392Z,13.23
2022-12-07T09:48:28.433Z,14.73
2022-12-07T09:50:57.277Z,15.20
2022-12-07T09:53:27.716Z,15.03
2022-12-07T09:55:56.388Z,14.47
2022-12-07T09:58:27.235Z,15.63
2022-12-07T10:00:56.143Z,15.47
2022-12-07T10:03:24.792Z,15.57
2022-12-07T10:05:54.004Z,14.60
2022-12-07T10:08:22.310Z,15.07
2022-12-07T10:10:52.798Z,15.00
2022-12-07T10:13:22.424Z,14.73
2022-12-07T10:15:56.391Z,13.50
2022-12-07T10:18:29.735Z,13.97
2022-12-07T10:21:05.974Z,15.80
2022-12-07T10:23:34.152Z,16.00
2022-12-07T10:26:02.691Z,16.90
2022-12-07T10:28:41.820Z,16.77
2022-12-07T10:31:18.899Z,16.40
2022-12-07T10:33:51.928Z,15.13
2022-12-07T10:36:21.864Z,15.93
2022-12-07T10:38:50.957Z,15.50
2022-12-07T10:41:19.939Z,14.40
2022-12-07T10:43:55.452Z,14.13
2022-12-07T10:46:53.843Z,12.83
2022-12-07T10:49:33.887Z,12.47
2022-12-07T10:52:04.555Z,11.93
2022-12-07T10:54:36.573Z,11.43
2022-12-07T10:57:13.168Z,11.97
2022-12-07T10:59:59.418Z,10.97
2022-12-07T11:02:33.878Z,11.50
2022-12-07T11:05:08.070Z,12.30
2022-12-07T11:07:41.708Z,11.30
2022-12-07T11:10:15.680Z,12.13
2022-12-07T11:12:54.772Z,11.83
2022-12-07T11:15:25.622Z,12.57
2022-12-07T11:17:59.084Z,12.40
2022-12-07T11:20:42.682Z,11.20
2022-12-07T11:23:16.141Z,12.20
2022-12-07T11:25:48.983Z,11.70
2022-12-07T11:28:24.347Z,11.30
2022-12-07T11:30:56.795Z,12.07
2022-12-07T11:33:30.477Z,11.60
2022-12-07T11:36:05.342Z,12.10
2022-12-07T11:38:38.588Z,11.63
2022-12-07T11:41:17.253Z,10.83
2022-12-07T11:43:53.039Z,8.83
2022-12-07T11:46:21.994Z,8.60
2022-12-07T11:48:53.612Z,8.60
2022-12-07T11:51:23.821Z,8.60
2022-12-07T11:53:54.578Z,8.97
2022-12-07T11:56:23.607Z,11.17
2022-12-07T11:58:54.016Z,11.50
2022-12-07T12:01:34.219Z,11.10
2022-12-07T12:04:05.214Z,10.57
2022-12-07T12:06:36.035Z,10.07
2022-12-07T12:15:00.595Z,11.33
2022-12-07T12:17:37.012Z,12.83
2022-12-07T12:20:08.686Z,12.63
2022-12-07T12:22:39.972Z,12.10
2022-12-07T12:25:08.866Z,12.93
2022-12-07T12:27:37.901Z,11.90
2022-12-07T12:30:07.330Z,12.97
2022-12-07T12:32:39.002Z,13.53
2022-12-07T12:35:22.045Z,12.73
2022-12-07T12:37:51.842Z,10.60
2022-12-07T12:40:38.469Z,11.70
2022-12-07T12:43:21.532Z,10.10
2022-12-07T12:45:49.758Z,13.00
2022-12-07T12:48:30.950Z,12.73
2022-12-07T12:51:13.998Z,9.50
2022-12-07T12:53:43.632Z,9.33
2022-12-07T12:56:26.891Z,10.57
2022-12-07T12:59:21.302Z,10.43
2022-12-07T13:01:50.175Z,9.77
2022-12-07T13:04:26.338Z,9.07
2022-12-07T13:06:55.012Z,10.20
2022-12-07T13:09:26.142Z,9.20
2022-12-07T13:11:59.397Z,10.63
2022-12-07T13:14:54.340Z,9.07
2022-12-07T13:17:41.968Z,10.47
2022-12-07T13:20:17.079Z,10.20
2022-12-07T13:22:52.929Z,8.93
2022-12-07T13:25:25.205Z,10.63
2022-12-07T13:27:56.973Z,9.80
2022-12-07T13:30:25.470Z,9.90
2022-12-07T13:32:57.901Z,9.40
2022-12-07T13:35:38.362Z,9.63
2022-12-07T13:38:08.327Z,9.40
2022-12-07T13:40:38.811Z,9.43
2022-12-07T13:43:07.703Z,9.47
2022-12-07T13:45:51.358Z,9.90
2022-12-07T13:48:24.722Z,9.30
2022-12-07T13:50:56.655Z,8.30
2022-12-07T13:53:24.940Z,9.13
2022-12-07T13:55:55.095Z,9.03
2022-12-07T13:58:23.857Z,8.33
2022-12-07T14:00:52.207Z,8.30
2022-12-07T14:03:30.136Z,8.70
2022-12-07T14:06:09.519Z,9.10
2022-12-07T14:08:37.739Z,8.50
2022-12-07T14:11:07.463Z,10.00
2022-12-07T14:13:36.731Z,9.30
2022-12-07T14:16:05.599Z,9.70
2022-12-07T14:18:39.553Z,9.43
2022-12-07T14:21:08.280Z,9.30
2022-12-07T14:23:36.469Z,9.20
2022-12-07T14:26:10.159Z,8.73
2022-12-07T14:28:39.585Z,9.87
2022-12-07T14:31:15.211Z,10.33
2022-12-07T14:33:48.787Z,9.53
2022-12-07T14:36:17.038Z,9.80
2022-12-07T14:38:45.738Z,9.70
2022-12-07T14:41:33.748Z,10.97
2022-12-07T14:44:22.511Z,10.60
2022-12-07T14:46:50.778Z,10.43
2022-12-07T14:49:34.933Z,10.50
2022-12-07T14:54:52.040Z,10.67
2022-12-07T14:57:21.579Z,9.67
2022-12-07T14:59:49.705Z,11.10
2022-12-07T15:02:18.045Z,9.73
2022-12-07T15:04:46.278Z,10.30
2022-12-07T15:07:17.983Z,10.33
2022-12-07T15:09:46.222Z,10.43
2022-12-07T15:12:14.488Z,9.10
2022-12-07T15:14:43.993Z,9.07
2022-12-07T15:17:24.669Z,8.70
2022-12-07T15:19:56.268Z,7.87
2022-12-07T15:22:24.425Z,8.53
2022-12-07T15:24:52.603Z,8.50
2022-12-07T15:27:20.798Z,9.03
2022-12-07T15:29:50.304Z,10.30
2022-12-07T15:32:18.556Z,9.20
2022-12-07T15:34:46.726Z,9.20
2022-12-07T15:37:14.872Z,8.87
2022-12-07T15:39:43.359Z,7.77
2022-12-07T15:42:11.544Z,7.90
2022-12-07T15:44:57.130Z,6.97
2022-12-07T15:47:27.515Z,7.23
2022-12-07T15:49:58.540Z,7.17
2022-12-07T15:52:26.751Z,6.50
2022-12-07T15:54:54.937Z,7.37
2022-12-07T15:57:25.540Z,7.53
2022-12-07T15:59:54.438Z,9.73
2022-12-07T16:02:23.481Z,8.30
2022-12-07T16:04:53.855Z,8.27
2022-12-07T16:07:22.180Z,8.80
2022-12-07T16:09:50.767Z,8.70
2022-12-07T16:12:19.194Z,8.50
2022-12-07T16:14:47.355Z,8.53
2022-12-07T16:17:15.588Z,8.43
2022-12-07T16:19:43.833Z,7.87
2022-12-07T16:22:13.346Z,7.83
2022-12-07T16:24:41.645Z,7.80
2022-12-07T16:27:09.821Z,7.97
2022-12-07T16:29:37.978Z,8.57
2022-12-07T16:32:06.319Z,8.27
2022-12-07T16:34:34.491Z,7.23
2022-12-07T16:37:04.638Z,8.37
2022-12-07T16:39:35.915Z,8.20
2022-12-07T16:42:04.360Z,9.23
2022-12-07T16:44:32.709Z,9.77
2022-12-07T16:47:01.600Z,9.60
2022-12-07T16:49:29.928Z,9.33
2022-12-07T16:52:18.624Z,9.60
2022-12-07T16:54:47.742Z,9.27
2022-12-07T16:57:22.016Z,9.50
2022-12-07T16:59:51.433Z,9.83
2022-12-07T17:02:19.643Z,9.87
2022-12-07T17:04:47.833Z,10.30
2022-12-07T17:07:16.016Z,11.73
2022-12-07T17:09:44.196Z,10.70
2022-12-07T17:12:13.912Z,10.33
2022-12-07T17:14:59.973Z,10.47
2022-12-07T17:17:28.233Z,10.43
2022-12-07T17:19:56.409Z,10.37
2022-12-07T17:22:24.588Z,10.67
2022-12-07T17:24:52.889Z,11.33
2022-12-07T17:27:22.414Z,10.87
2022-12-07T17:29:50.574Z,11.53
2022-12-07T17:32:18.748Z,11.90
2022-12-07T17:34:46.914Z,12.00
2022-12-07T17:37:15.096Z,12.67
2022-12-07T17:39:43.251Z,13.97
2022-12-07T17:42:29.367Z,12.87
2022-12-07T17:44:59.171Z,13.00
2022-12-07T17:47:27.378Z,13.20
2022-12-07T17:49:55.546Z,14.43
2022-12-07T17:52:41.781Z,14.60
2022-12-07T17:55:10.278Z,13.07
2022-12-07T17:57:38.470Z,11.90
2022-12-07T18:00:08.800Z,13.43
2022-12-07T18:02:37.037Z,12.53
2022-12-07T18:05:05.663Z,12.90
2022-12-07T18:07:34.083Z,11.80
2022-12-07T18:10:02.226Z,11.63
2022-12-07T18:12:30.412Z,11.03
2022-12-07T18:14:58.603Z,10.83
2022-12-07T18:17:28.122Z,10.17
2022-12-07T18:19:56.293Z,11.27
2022-12-07T18:22:25.190Z,12.07
2022-12-07T18:24:53.350Z,13.17
2022-12-07T18:27:22.025Z,11.93
2022-12-07T18:29:50.361Z,11.83
2022-12-07T18:32:18.543Z,11.30
2022-12-07T18:34:48.125Z,11.83
2022-12-07T18:37:16.281Z,11.73
2022-12-07T18:39:44.441Z,11.87
2022-12-07T18:42:12.582Z,10.87
2022-12-07T18:44:40.753Z,12.00
2022-12-07T18:47:08.898Z,11.23
2022-12-07T18:49:37.073Z,11.30
2022-12-07T18:52:06.821Z,10.90
2022-12-07T18:54:34.966Z,12.17
2022-12-07T18:57:03.136Z,11.80
2022-12-07T18:59:50.101Z,12.37
2022-12-07T19:02:19.349Z,12.53
2022-12-07T19:04:47.771Z,12.70
2022-12-07T19:07:17.354Z,12.27
2022-12-07T19:09:45.494Z,12.37
2022-12-07T19:12:14.506Z,11.10
2022-12-07T19:14:42.768Z,12.10
2022-12-07T19:17:12.561Z,11.00
2022-12-07T19:19:41.654Z,11.57
2022-12-07T19:22:10.512Z,11.77
2022-12-07T19:24:40.475Z,12.10
2022-12-07T19:27:09.115Z,12.57
2022-12-07T19:29:37.328Z,13.17
2022-12-07T19:32:08.642Z,13.37
2022-12-07T19:34:37.384Z,13.63
2022-12-07T19:37:05.922Z,15.87
2022-12-07T19:39:34.678Z,14.87
2022-12-07T19:42:04.245Z,16.47
2022-12-07T19:44:33.975Z,15.40
2022-12-07T19:47:05.248Z,15.10
2022-12-07T19:49:34.614Z,16.20
2022-12-07T19:52:04.176Z,17.03
2022-12-07T19:54:32.837Z,16.17
2022-12-07T19:57:01.084Z,16.87
2022-12-07T19:59:31.281Z,16.23
2022-12-07T20:01:59.523Z,16.50
2022-12-07T20:04:28.827Z,16.27
2022-12-07T20:06:58.217Z,16.20
2022-12-07T20:09:26.410Z,16.77
2022-12-07T20:12:12.041Z,15.83
2022-12-07T20:14:41.642Z,16.70
2022-12-07T20:17:09.931Z,15.30
2022-12-07T20:19:38.510Z,16.27
2022-12-07T20:22:07.056Z,16.30
2022-12-07T20:24:36.205Z,15.50
2022-12-07T20:27:05.037Z,15.27
2022-12-07T20:29:33.445Z,16.00
2022-12-07T20:32:02.989Z,15.90
2022-12-07T20:34:31.171Z,15.07
2022-12-07T20:36:59.336Z,16.00
2022-12-07T20:39:27.545Z,14.57
2022-12-07T20:42:13.392Z,14.83
2022-12-07T20:44:41.744Z,14.97
2022-12-07T20:47:11.268Z,14.67
2022-12-07T20:49:39.450Z,14.23
2022-12-07T20:52:07.635Z,14.67
2022-12-07T20:54:35.913Z,14.97
2022-12-07T20:57:04.113Z,14.60
2022-12-07T20:59:35.325Z,13.70
2022-12-07T21:02:08.253Z,12.10
2022-12-07T21:04:37.808Z,11.37
2022-12-07T21:07:05.959Z,12.33
2022-12-07T21:09:34.150Z,11.47
2022-12-07T21:12:02.349Z,11.80
2022-12-07T21:14:30.610Z,10.87
2022-12-07T21:16:58.784Z,11.47
2022-12-07T21:19:26.971Z,10.23
2022-12-07T21:21:56.553Z,10.23
2022-12-07T21:24:24.725Z,10.53
2022-12-07T21:26:52.873Z,9.93
2022-12-07T21:29:40.781Z,10.93
2022-12-07T21:32:09.515Z,9.77
2022-12-07T21:34:37.747Z,10.93
2022-12-07T21:37:07.320Z,10.93
2022-12-07T21:39:35.475Z,11.63
2022-12-07T21:42:03.657Z,11.90
2022-12-07T21:44:31.825Z,11.70
2022-12-07T21:47:00.719Z,12.73
2022-12-07T21:49:28.948Z,13.03
2022-12-07T21:51:57.105Z,12.97
2022-12-07T21:54:26.602Z,13.30
2022-12-07T21:56:54.781Z,14.20
2022-12-07T21:59:22.964Z,13.67
2022-12-07T22:01:51.779Z,14.87
2022-12-07T22:04:21.139Z,13.87
2022-12-07T22:06:49.726Z,14.70
2022-12-07T22:09:18.738Z,13.90
2022-12-07T22:11:48.615Z,14.30
2022-12-07T22:14:34.596Z,14.93
2022-12-07T22:17:02.784Z,14.53
2022-12-07T22:19:30.964Z,14.80
2022-12-07T22:21:59.113Z,14.57
2022-12-07T22:24:27.288Z,15.13
2022-12-07T22:26:56.909Z,14.27
2022-12-07T22:29:27.441Z,15.00
2022-12-07T22:31:55.816Z,14.83
2022-12-07T22:34:24.061Z,12.50
2022-12-07T22:36:52.221Z,12.77
2022-12-07T22:39:20.438Z,13.53
2022-12-07T22:41:48.616Z,13.97
2022-12-07T22:44:18.868Z,14.23
2022-12-07T22:46:47.293Z,13.90
2022-12-07T22:49:15.515Z,14.30
2022-12-07T22:51:44.544Z,13.60
2022-12-07T22:54:15.470Z,14.27
2022-12-07T22:56:43.781Z,13.17
2022-12-07T22:59:13.253Z,13.50
2022-12-07T23:01:42.897Z,14.53
2022-12-07T23:04:11.151Z,12.97
2022-12-07T23:06:39.482Z,14.50
2022-12-07T23:09:09.025Z,14.47
2022-12-07T23:11:57.072Z,14.63
2022-12-07T23:14:27.328Z,14.07
2022-12-07T23:16:56.939Z,14.70
2022-12-07T23:19:25.173Z,14.23
2022-12-07T23:21:53.333Z,15.53
2022-12-07T23:24:21.731Z,15.23
2022-12-07T23:26:49.964Z,14.80
2022-12-07T23:29:18.481Z,15.60
2022-12-07T23:31:47.124Z,15.10
2022-12-07T23:34:16.847Z,14.60
2022-12-07T23:36:45.058Z,13.63
2022-12-07T23:39:13.486Z,13.83
2022-12-07T23:41:41.668Z,13.97
2022-12-07T23:44:09.826Z,13.30
2022-12-07T23:46:38.053Z,13.50
2022-12-07T23:49:06.836Z,12.10
2022-12-07T23:51:36.425Z,12.37
2022-12-07T23:54:04.994Z,12.63
2022-12-07T23:56:33.981Z,11.50
2022-12-07T23:59:02.691Z,12.43
